sensor_id;sensor_type;location;lat;lon;timestamp;P1;durP1;ratioP1;P2;durP2;ratioP2
9186;SDS011;7273;48.902;9.410;2023-01-25T00:01:42;629.53;;;214.88;;
9186;SDS011;7273;48.902;9.410;2023-01-25T00:04:08;629.78;;;214.38;;
9186;SDS011;7273;48.902;9.410;2023-01-25T00:06:33;629.05;;;214.57;;
9186;SDS011;7273;48.902;9.410;2023-01-25T00:08:59;637.05;;;216.45;;
9186;SDS011;7273;48.902;9.410;2023-01-25T00:11:24;637.40;;;217.77;;
9186;SDS011;7273;48.902;9.410;2023-01-25T00:13:52;640.38;;;219.40;;
9186;SDS011;7273;48.902;9.410;2023-01-25T00:16:17;641.72;;;220.15;;
9186;SDS011;7273;48.902;9.410;2023-01-25T00:18:43;639.45;;;218.45;;
9186;SDS011;7273;48.902;9.410;2023-01-25T00:21:15;641.90;;;219.38;;
9186;SDS011;7273;48.902;9.410;2023-01-25T00:23:42;642.38;;;221.07;;
9186;SDS011;7273;48.902;9.410;2023-01-25T00:26:08;646.67;;;223.13;;
9186;SDS011;7273;48.902;9.410;2023-01-25T00:28:33;653.67;;;224.43;;
9186;SDS011;7273;48.902;9.410;2023-01-25T00:30:59;655.88;;;225.85;;
9186;SDS011;7273;48.902;9.410;2023-01-25T00:33:32;657.85;;;228.05;;
9186;SDS011;7273;48.902;9.410;2023-01-25T00:38:56;660.13;;;229.23;;
9186;SDS011;7273;48.902;9.410;2023-01-25T00:41:23;668.92;;;232.02;;
9186;SDS011;7273;48.902;9.410;2023-01-25T00:43:49;664.17;;;231.40;;
9186;SDS011;7273;48.902;9.410;2023-01-25T00:46:15;620.10;;;209.43;;
9186;SDS011;7273;48.902;9.410;2023-01-25T00:48:41;558.13;;;174.70;;
9186;SDS011;7273;48.902;9.410;2023-01-25T00:51:07;552.90;;;172.38;;
9186;SDS011;7273;48.902;9.410;2023-01-25T00:53:33;548.55;;;170.18;;
9186;SDS011;7273;48.902;9.410;2023-01-25T00:55:58;547.25;;;169.40;;
9186;SDS011;7273;48.902;9.410;2023-01-25T00:58:24;536.83;;;165.75;;
9186;SDS011;7273;48.902;9.410;2023-01-25T01:00:53;546.45;;;167.98;;
9186;SDS011;7273;48.902;9.410;2023-01-25T01:03:20;543.58;;;168.45;;
9186;SDS011;7273;48.902;9.410;2023-01-25T01:05:45;542.05;;;166.65;;
9186;SDS011;7273;48.902;9.410;2023-01-25T01:08:14;541.30;;;167.70;;
9186;SDS011;7273;48.902;9.410;2023-01-25T01:10:39;544.20;;;167.93;;
9186;SDS011;7273;48.902;9.410;2023-01-25T01:13:06;549.95;;;170.90;;
9186;SDS011;7273;48.902;9.410;2023-01-25T01:15:34;548.78;;;170.43;;
9186;SDS011;7273;48.902;9.410;2023-01-25T01:18:01;547.92;;;170.35;;
9186;SDS011;7273;48.902;9.410;2023-01-25T01:20:26;545.70;;;168.68;;
9186;SDS011;7273;48.902;9.410;2023-01-25T01:22:52;544.03;;;168.02;;
9186;SDS011;7273;48.902;9.410;2023-01-25T01:25:19;551.50;;;172.02;;
9186;SDS011;7273;48.902;9.410;2023-01-25T01:27:45;552.30;;;172.40;;
9186;SDS011;7273;48.902;9.410;2023-01-25T01:30:10;554.67;;;173.45;;
9186;SDS011;7273;48.902;9.410;2023-01-25T01:32:36;551.80;;;171.93;;
9186;SDS011;7273;48.902;9.410;2023-01-25T01:35:01;552.58;;;173.00;;
9186;SDS011;7273;48.902;9.410;2023-01-25T01:37:27;554.13;;;174.27;;
9186;SDS011;7273;48.902;9.410;2023-01-25T01:39:52;548.58;;;171.63;;
9186;SDS011;7273;48.902;9.410;2023-01-25T01:42:18;554.33;;;174.13;;
9186;SDS011;7273;48.902;9.410;2023-01-25T01:44:50;578.45;;;186.35;;
9186;SDS011;7273;48.902;9.410;2023-01-25T01:47:21;635.17;;;217.30;;
9186;SDS011;7273;48.902;9.410;2023-01-25T01:49:53;635.78;;;216.48;;
9186;SDS011;7273;48.902;9.410;2023-01-25T01:52:27;641.72;;;219.60;;
9186;SDS011;7273;48.902;9.410;2023-01-25T01:54:56;647.13;;;223.18;;
9186;SDS011;7273;48.902;9.410;2023-01-25T01:57:28;644.95;;;221.02;;
9186;SDS011;7273;48.902;9.410;2023-01-25T02:00:15;659.75;;;228.15;;
9186;SDS011;7273;48.902;9.410;2023-01-25T02:02:53;662.58;;;229.70;;
9186;SDS011;7273;48.902;9.410;2023-01-25T02:05:23;655.25;;;225.98;;
9186;SDS011;7273;48.902;9.410;2023-01-25T02:10:21;651.40;;;228.68;;
9186;SDS011;7273;48.902;9.410;2023-01-25T02:12:50;653.58;;;228.10;;
9186;SDS011;7273;48.902;9.410;2023-01-25T02:15:18;655.03;;;227.25;;
9186;SDS011;7273;48.902;9.410;2023-01-25T02:17:44;648.10;;;225.23;;
9186;SDS011;7273;48.902;9.410;2023-01-25T02:22:55;647.05;;;222.75;;
9186;SDS011;7273;48.902;9.410;2023-01-25T02:25:25;645.78;;;222.75;;
9186;SDS011;7273;48.902;9.410;2023-01-25T02:27:53;650.63;;;225.25;;
9186;SDS011;7273;48.902;9.410;2023-01-25T02:30:22;644.10;;;222.07;;
9186;SDS011;7273;48.902;9.410;2023-01-25T02:32:48;651.08;;;224.70;;
9186;SDS011;7273;48.902;9.410;2023-01-25T02:35:18;658.08;;;227.48;;
9186;SDS011;7273;48.902;9.410;2023-01-25T02:37:48;655.33;;;227.32;;
9186;SDS011;7273;48.902;9.410;2023-01-25T02:40:15;658.38;;;227.68;;
9186;SDS011;7273;48.902;9.410;2023-01-25T02:42:44;662.90;;;230.52;;
9186;SDS011;7273;48.902;9.410;2023-01-25T02:45:12;662.90;;;229.07;;
9186;SDS011;7273;48.902;9.410;2023-01-25T02:47:40;670.97;;;233.60;;
9186;SDS011;7273;48.902;9.410;2023-01-25T02:50:06;668.17;;;231.45;;
9186;SDS011;7273;48.902;9.410;2023-01-25T02:52:32;660.28;;;228.55;;
9186;SDS011;7273;48.902;9.410;2023-01-25T02:54:58;641.03;;;220.32;;
9186;SDS011;7273;48.902;9.410;2023-01-25T02:57:23;637.07;;;217.53;;
9186;SDS011;7273;48.902;9.410;2023-01-25T02:59:48;635.17;;;217.18;;
9186;SDS011;7273;48.902;9.410;2023-01-25T03:02:14;576.13;;;184.82;;
9186;SDS011;7273;48.902;9.410;2023-01-25T03:04:39;640.90;;;220.73;;
9186;SDS011;7273;48.902;9.410;2023-01-25T03:07:05;637.45;;;219.13;;
9186;SDS011;7273;48.902;9.410;2023-01-25T03:09:30;642.63;;;221.13;;
9186;SDS011;7273;48.902;9.410;2023-01-25T03:11:56;639.05;;;219.18;;
9186;SDS011;7273;48.902;9.410;2023-01-25T03:14:21;649.80;;;224.63;;
9186;SDS011;7273;48.902;9.410;2023-01-25T03:16:47;629.88;;;213.73;;
9186;SDS011;7273;48.902;9.410;2023-01-25T03:19:12;632.90;;;216.27;;
9186;SDS011;7273;48.902;9.410;2023-01-25T03:21:40;641.97;;;220.20;;
9186;SDS011;7273;48.902;9.410;2023-01-25T03:24:05;642.72;;;221.27;;
9186;SDS011;7273;48.902;9.410;2023-01-25T03:26:33;648.35;;;224.32;;
9186;SDS011;7273;48.902;9.410;2023-01-25T03:29:18;649.08;;;224.00;;
9186;SDS011;7273;48.902;9.410;2023-01-25T03:31:43;658.75;;;228.07;;
9186;SDS011;7273;48.902;9.410;2023-01-25T03:34:09;660.05;;;230.52;;
9186;SDS011;7273;48.902;9.410;2023-01-25T03:36:34;662.13;;;231.15;;
9186;SDS011;7273;48.902;9.410;2023-01-25T03:39:00;667.40;;;233.30;;
9186;SDS011;7273;48.902;9.410;2023-01-25T03:41:25;625.37;;;212.07;;
9186;SDS011;7273;48.902;9.410;2023-01-25T03:43:50;631.58;;;214.63;;
9186;SDS011;7273;48.902;9.410;2023-01-25T03:46:16;634.92;;;214.98;;
9186;SDS011;7273;48.902;9.410;2023-01-25T03:48:41;637.58;;;217.90;;
9186;SDS011;7273;48.902;9.410;2023-01-25T03:51:07;636.55;;;216.68;;
9186;SDS011;7273;48.902;9.410;2023-01-25T03:53:33;639.95;;;217.85;;
9186;SDS011;7273;48.902;9.410;2023-01-25T03:58:32;638.40;;;218.48;;
9186;SDS011;7273;48.902;9.410;2023-01-25T04:01:00;638.60;;;217.95;;
9186;SDS011;7273;48.902;9.410;2023-01-25T04:03:27;639.90;;;217.52;;
9186;SDS011;7273;48.902;9.410;2023-01-25T04:05:53;566.33;;;178.90;;
9186;SDS011;7273;48.902;9.410;2023-01-25T04:08:20;560.72;;;177.52;;
9186;SDS011;7273;48.902;9.410;2023-01-25T04:10:52;562.97;;;177.43;;
9186;SDS011;7273;48.902;9.410;2023-01-25T04:13:25;569.70;;;179.52;;
9186;SDS011;7273;48.902;9.410;2023-01-25T04:15:50;570.50;;;181.98;;
9186;SDS011;7273;48.902;9.410;2023-01-25T04:18:16;615.72;;;204.65;;
9186;SDS011;7273;48.902;9.410;2023-01-25T04:20:42;634.25;;;214.10;;
9186;SDS011;7273;48.902;9.410;2023-01-25T04:23:08;636.13;;;216.00;;
9186;SDS011;7273;48.902;9.410;2023-01-25T04:25:34;636.00;;;215.88;;
9186;SDS011;7273;48.902;9.410;2023-01-25T04:28:00;636.72;;;216.23;;
9186;SDS011;7273;48.902;9.410;2023-01-25T04:30:26;636.50;;;216.57;;
9186;SDS011;7273;48.902;9.410;2023-01-25T04:32:51;637.15;;;215.18;;
9186;SDS011;7273;48.902;9.410;2023-01-25T04:35:16;635.10;;;214.95;;
9186;SDS011;7273;48.902;9.410;2023-01-25T04:37:51;635.08;;;215.25;;
9186;SDS011;7273;48.902;9.410;2023-01-25T04:40:20;635.40;;;215.65;;
9186;SDS011;7273;48.902;9.410;2023-01-25T04:42:45;637.95;;;217.98;;
9186;SDS011;7273;48.902;9.410;2023-01-25T04:45:11;634.50;;;215.63;;
9186;SDS011;7273;48.902;9.410;2023-01-25T04:47:36;640.80;;;219.73;;
9186;SDS011;7273;48.902;9.410;2023-01-25T04:50:02;641.03;;;219.30;;
9186;SDS011;7273;48.902;9.410;2023-01-25T04:52:27;640.08;;;219.43;;
9186;SDS011;7273;48.902;9.410;2023-01-25T04:54:53;637.92;;;217.95;;
9186;SDS011;7273;48.902;9.410;2023-01-25T04:57:18;638.20;;;219.33;;
9186;SDS011;7273;48.902;9.410;2023-01-25T04:59:43;642.97;;;219.57;;
9186;SDS011;7273;48.902;9.410;2023-01-25T05:02:09;642.25;;;219.07;;
9186;SDS011;7273;48.902;9.410;2023-01-25T05:04:34;641.53;;;219.27;;
9186;SDS011;7273;48.902;9.410;2023-01-25T05:07:00;646.45;;;221.60;;
9186;SDS011;7273;48.902;9.410;2023-01-25T05:09:25;646.05;;;220.80;;
9186;SDS011;7273;48.902;9.410;2023-01-25T05:11:50;646.10;;;221.33;;
9186;SDS011;7273;48.902;9.410;2023-01-25T05:14:16;647.50;;;221.10;;
9186;SDS011;7273;48.902;9.410;2023-01-25T05:16:41;649.10;;;222.60;;
9186;SDS011;7273;48.902;9.410;2023-01-25T05:19:08;652.97;;;223.68;;
9186;SDS011;7273;48.902;9.410;2023-01-25T05:21:34;655.47;;;225.02;;
9186;SDS011;7273;48.902;9.410;2023-01-25T05:24:18;652.72;;;224.45;;
9186;SDS011;7273;48.902;9.410;2023-01-25T05:26:43;647.95;;;222.80;;
9186;SDS011;7273;48.902;9.410;2023-01-25T05:29:31;650.47;;;225.15;;
9186;SDS011;7273;48.902;9.410;2023-01-25T05:32:08;637.20;;;216.35;;
9186;SDS011;7273;48.902;9.410;2023-01-25T05:34:36;650.58;;;222.27;;
9186;SDS011;7273;48.902;9.410;2023-01-25T05:37:03;652.30;;;223.65;;
9186;SDS011;7273;48.902;9.410;2023-01-25T05:39:30;649.83;;;223.63;;
9186;SDS011;7273;48.902;9.410;2023-01-25T05:41:55;652.08;;;224.20;;
9186;SDS011;7273;48.902;9.410;2023-01-25T05:44:21;651.90;;;223.95;;
9186;SDS011;7273;48.902;9.410;2023-01-25T05:46:47;650.83;;;222.95;;
9186;SDS011;7273;48.902;9.410;2023-01-25T05:49:13;655.03;;;223.75;;
9186;SDS011;7273;48.902;9.410;2023-01-25T05:51:39;652.85;;;224.38;;
9186;SDS011;7273;48.902;9.410;2023-01-25T05:54:05;656.22;;;226.23;;
9186;SDS011;7273;48.902;9.410;2023-01-25T05:56:31;383.42;;;129.60;;
9186;SDS011;7273;48.902;9.410;2023-01-25T05:58:57;650.63;;;224.70;;
9186;SDS011;7273;48.902;9.410;2023-01-25T06:01:24;651.22;;;222.82;;
9186;SDS011;7273;48.902;9.410;2023-01-25T06:03:50;652.55;;;224.20;;
9186;SDS011;7273;48.902;9.410;2023-01-25T06:06:16;654.83;;;223.80;;
9186;SDS011;7273;48.902;9.410;2023-01-25T06:08:42;651.55;;;223.77;;
9186;SDS011;7273;48.902;9.410;2023-01-25T06:11:09;655.92;;;226.88;;
9186;SDS011;7273;48.902;9.410;2023-01-25T06:13:36;654.22;;;223.98;;
9186;SDS011;7273;48.902;9.410;2023-01-25T06:16:01;654.00;;;224.68;;
9186;SDS011;7273;48.902;9.410;2023-01-25T06:18:28;648.78;;;222.48;;
9186;SDS011;7273;48.902;9.410;2023-01-25T06:20:55;649.17;;;222.60;;
9186;SDS011;7273;48.902;9.410;2023-01-25T06:23:21;649.00;;;222.50;;
9186;SDS011;7273;48.902;9.410;2023-01-25T06:25:47;654.20;;;223.63;;
9186;SDS011;7273;48.902;9.410;2023-01-25T06:28:12;662.42;;;228.63;;
9186;SDS011;7273;48.902;9.410;2023-01-25T06:30:37;661.50;;;227.60;;
9186;SDS011;7273;48.902;9.410;2023-01-25T06:33:03;663.65;;;229.13;;
9186;SDS011;7273;48.902;9.410;2023-01-25T06:35:30;668.50;;;230.73;;
9186;SDS011;7273;48.902;9.410;2023-01-25T06:37:56;666.00;;;230.18;;
9186;SDS011;7273;48.902;9.410;2023-01-25T06:40:22;665.55;;;229.65;;
9186;SDS011;7273;48.902;9.410;2023-01-25T06:42:48;667.30;;;230.73;;
9186;SDS011;7273;48.902;9.410;2023-01-25T06:45:13;664.90;;;228.63;;
9186;SDS011;7273;48.902;9.410;2023-01-25T06:47:39;667.30;;;229.32;;
9186;SDS011;7273;48.902;9.410;2023-01-25T06:50:05;663.40;;;228.30;;
9186;SDS011;7273;48.902;9.410;2023-01-25T06:52:31;663.53;;;228.88;;
9186;SDS011;7273;48.902;9.410;2023-01-25T06:55:00;670.35;;;231.02;;
9186;SDS011;7273;48.902;9.410;2023-01-25T06:57:28;668.65;;;230.93;;
9186;SDS011;7273;48.902;9.410;2023-01-25T06:59:54;665.08;;;228.65;;
9186;SDS011;7273;48.902;9.410;2023-01-25T07:02:19;669.40;;;231.35;;
9186;SDS011;7273;48.902;9.410;2023-01-25T07:04:45;668.53;;;231.35;;
9186;SDS011;7273;48.902;9.410;2023-01-25T07:07:11;675.30;;;235.30;;
9186;SDS011;7273;48.902;9.410;2023-01-25T07:09:36;605.78;;;194.30;;
9186;SDS011;7273;48.902;9.410;2023-01-25T07:12:02;623.93;;;202.37;;
9186;SDS011;7273;48.902;9.410;2023-01-25T07:14:30;650.45;;;218.43;;
9186;SDS011;7273;48.902;9.410;2023-01-25T07:16:56;645.55;;;216.85;;
9186;SDS011;7273;48.902;9.410;2023-01-25T07:19:21;687.10;;;239.27;;
9186;SDS011;7273;48.902;9.410;2023-01-25T07:21:47;692.95;;;241.57;;
9186;SDS011;7273;48.902;9.410;2023-01-25T07:24:14;703.25;;;248.70;;
9186;SDS011;7273;48.902;9.410;2023-01-25T07:26:41;697.47;;;245.65;;
9186;SDS011;7273;48.902;9.410;2023-01-25T07:29:08;678.67;;;237.32;;
9186;SDS011;7273;48.902;9.410;2023-01-25T07:31:37;688.72;;;241.10;;
9186;SDS011;7273;48.902;9.410;2023-01-25T07:34:03;691.50;;;243.23;;
9186;SDS011;7273;48.902;9.410;2023-01-25T07:36:29;682.53;;;238.95;;
9186;SDS011;7273;48.902;9.410;2023-01-25T07:38:55;691.22;;;241.48;;
9186;SDS011;7273;48.902;9.410;2023-01-25T07:41:22;692.80;;;243.20;;
9186;SDS011;7273;48.902;9.410;2023-01-25T07:43:48;688.38;;;240.55;;
9186;SDS011;7273;48.902;9.410;2023-01-25T07:46:14;688.15;;;241.20;;
9186;SDS011;7273;48.902;9.410;2023-01-25T07:48:44;692.05;;;243.40;;
9186;SDS011;7273;48.902;9.410;2023-01-25T07:51:11;691.92;;;243.77;;
9186;SDS011;7273;48.902;9.410;2023-01-25T07:53:46;687.42;;;242.35;;
9186;SDS011;7273;48.902;9.410;2023-01-25T07:56:14;696.95;;;245.63;;
9186;SDS011;7273;48.902;9.410;2023-01-25T07:58:40;697.95;;;245.55;;
9186;SDS011;7273;48.902;9.410;2023-01-25T08:01:06;701.80;;;247.75;;
9186;SDS011;7273;48.902;9.410;2023-01-25T08:03:32;701.20;;;247.98;;
9186;SDS011;7273;48.902;9.410;2023-01-25T08:05:58;704.22;;;248.25;;
9186;SDS011;7273;48.902;9.410;2023-01-25T08:08:23;707.92;;;250.30;;
9186;SDS011;7273;48.902;9.410;2023-01-25T08:10:49;712.05;;;252.82;;
9186;SDS011;7273;48.902;9.410;2023-01-25T08:13:15;710.97;;;250.60;;
9186;SDS011;7273;48.902;9.410;2023-01-25T08:15:40;708.50;;;249.40;;
9186;SDS011;7273;48.902;9.410;2023-01-25T08:18:05;711.30;;;251.48;;
9186;SDS011;7273;48.902;9.410;2023-01-25T08:20:31;713.22;;;253.18;;
9186;SDS011;7273;48.902;9.410;2023-01-25T08:22:56;716.38;;;255.27;;
9186;SDS011;7273;48.902;9.410;2023-01-25T08:25:22;710.45;;;250.30;;
9186;SDS011;7273;48.902;9.410;2023-01-25T08:27:47;710.67;;;250.85;;
9186;SDS011;7273;48.902;9.410;2023-01-25T08:30:13;712.47;;;250.73;;
9186;SDS011;7273;48.902;9.410;2023-01-25T08:32:39;710.92;;;249.85;;
9186;SDS011;7273;48.902;9.410;2023-01-25T08:35:04;713.55;;;251.40;;
9186;SDS011;7273;48.902;9.410;2023-01-25T08:37:30;718.38;;;252.27;;
9186;SDS011;7273;48.902;9.410;2023-01-25T08:39:56;716.15;;;253.55;;
9186;SDS011;7273;48.902;9.410;2023-01-25T08:42:22;719.05;;;252.57;;
9186;SDS011;7273;48.902;9.410;2023-01-25T08:44:48;719.28;;;254.25;;
9186;SDS011;7273;48.902;9.410;2023-01-25T08:47:13;724.28;;;257.00;;
9186;SDS011;7273;48.902;9.410;2023-01-25T08:49:39;726.00;;;256.65;;
9186;SDS011;7273;48.902;9.410;2023-01-25T08:52:06;725.70;;;256.02;;
9186;SDS011;7273;48.902;9.410;2023-01-25T08:54:31;722.22;;;254.57;;
9186;SDS011;7273;48.902;9.410;2023-01-25T08:56:57;721.67;;;254.63;;
9186;SDS011;7273;48.902;9.410;2023-01-25T08:59:22;718.30;;;253.20;;
9186;SDS011;7273;48.902;9.410;2023-01-25T09:01:48;718.75;;;255.15;;
9186;SDS011;7273;48.902;9.410;2023-01-25T09:04:13;722.42;;;254.70;;
9186;SDS011;7273;48.902;9.410;2023-01-25T09:06:39;724.55;;;255.55;;
9186;SDS011;7273;48.902;9.410;2023-01-25T09:09:04;726.38;;;258.67;;
9186;SDS011;7273;48.902;9.410;2023-01-25T09:11:32;731.58;;;259.92;;
9186;SDS011;7273;48.902;9.410;2023-01-25T09:14:00;730.67;;;259.60;;
9186;SDS011;7273;48.902;9.410;2023-01-25T09:16:26;732.45;;;260.55;;
9186;SDS011;7273;48.902;9.410;2023-01-25T09:18:53;732.17;;;259.00;;
9186;SDS011;7273;48.902;9.410;2023-01-25T09:21:20;738.38;;;262.45;;
9186;SDS011;7273;48.902;9.410;2023-01-25T09:23:46;740.25;;;263.52;;
9186;SDS011;7273;48.902;9.410;2023-01-25T09:26:13;741.10;;;265.38;;
9186;SDS011;7273;48.902;9.410;2023-01-25T09:28:39;744.25;;;266.50;;
9186;SDS011;7273;48.902;9.410;2023-01-25T09:31:06;746.90;;;266.55;;
9186;SDS011;7273;48.902;9.410;2023-01-25T09:33:35;756.55;;;272.42;;
9186;SDS011;7273;48.902;9.410;2023-01-25T09:36:02;764.15;;;275.67;;
9186;SDS011;7273;48.902;9.410;2023-01-25T09:38:27;763.15;;;277.38;;
9186;SDS011;7273;48.902;9.410;2023-01-25T09:46:42;754.08;;;276.20;;
9186;SDS011;7273;48.902;9.410;2023-01-25T09:54:27;788.08;;;291.40;;
9186;SDS011;7273;48.902;9.410;2023-01-25T09:56:55;795.25;;;292.88;;
9186;SDS011;7273;48.902;9.410;2023-01-25T09:59:24;807.10;;;298.00;;
9186;SDS011;7273;48.902;9.410;2023-01-25T10:04:51;811.85;;;303.58;;
9186;SDS011;7273;48.902;9.410;2023-01-25T10:10:02;818.95;;;306.77;;
9186;SDS011;7273;48.902;9.410;2023-01-25T10:12:34;819.10;;;305.40;;
9186;SDS011;7273;48.902;9.410;2023-01-25T10:15:07;828.95;;;311.63;;
9186;SDS011;7273;48.902;9.410;2023-01-25T10:17:43;826.67;;;312.30;;
9186;SDS011;7273;48.902;9.410;2023-01-25T10:22:43;834.97;;;314.20;;
9186;SDS011;7273;48.902;9.410;2023-01-25T10:25:18;837.63;;;317.33;;
9186;SDS011;7273;48.902;9.410;2023-01-25T10:33:31;848.05;;;321.45;;
9186;SDS011;7273;48.902;9.410;2023-01-25T10:36:00;839.95;;;318.02;;
9186;SDS011;7273;48.902;9.410;2023-01-25T10:43:23;835.88;;;321.05;;
9186;SDS011;7273;48.902;9.410;2023-01-25T10:45:48;814.88;;;307.67;;
9186;SDS011;7273;48.902;9.410;2023-01-25T10:48:34;820.03;;;310.67;;
9186;SDS011;7273;48.902;9.410;2023-01-25T10:51:00;809.65;;;307.42;;
9186;SDS011;7273;48.902;9.410;2023-01-25T10:53:31;800.28;;;303.48;;
9186;SDS011;7273;48.902;9.410;2023-01-25T11:01:03;819.00;;;309.65;;
9186;SDS011;7273;48.902;9.410;2023-01-25T11:03:34;822.67;;;310.98;;
9186;SDS011;7273;48.902;9.410;2023-01-25T11:06:06;827.00;;;313.75;;
9186;SDS011;7273;48.902;9.410;2023-01-25T11:08:34;833.17;;;313.73;;
9186;SDS011;7273;48.902;9.410;2023-01-25T11:11:11;830.03;;;311.63;;
9186;SDS011;7273;48.902;9.410;2023-01-25T11:13:46;781.22;;;294.10;;
9186;SDS011;7273;48.902;9.410;2023-01-25T11:19:01;659.20;;;227.48;;
9186;SDS011;7273;48.902;9.410;2023-01-25T11:21:29;636.45;;;211.80;;
9186;SDS011;7273;48.902;9.410;2023-01-25T11:26:34;704.58;;;247.35;;
9186;SDS011;7273;48.902;9.410;2023-01-25T11:29:18;727.95;;;260.83;;
9186;SDS011;7273;48.902;9.410;2023-01-25T11:31:48;710.75;;;255.07;;
9186;SDS011;7273;48.902;9.410;2023-01-25T11:34:18;693.47;;;247.48;;
9186;SDS011;7273;48.902;9.410;2023-01-25T11:42:34;663.20;;;232.02;;
9186;SDS011;7273;48.902;9.410;2023-01-25T11:50:10;671.97;;;235.15;;
9186;SDS011;7273;48.902;9.410;2023-01-25T11:55:34;682.15;;;239.70;;
9186;SDS011;7273;48.902;9.410;2023-01-25T11:58:06;697.78;;;246.38;;
9186;SDS011;7273;48.902;9.410;2023-01-25T12:01:06;690.53;;;244.57;;
9186;SDS011;7273;48.902;9.410;2023-01-25T12:22:55;640.38;;;220.40;;
9186;SDS011;7273;48.902;9.410;2023-01-25T12:25:30;641.75;;;219.52;;
9186;SDS011;7273;48.902;9.410;2023-01-25T12:30:54;645.92;;;222.65;;
9186;SDS011;7273;48.902;9.410;2023-01-25T12:33:27;647.33;;;222.27;;
9186;SDS011;7273;48.902;9.410;2023-01-25T12:41:27;648.42;;;222.18;;
9186;SDS011;7273;48.902;9.410;2023-01-25T12:46:44;654.10;;;225.50;;
9186;SDS011;7273;48.902;9.410;2023-01-25T12:52:33;649.50;;;226.07;;
9186;SDS011;7273;48.902;9.410;2023-01-25T12:55:01;653.47;;;227.18;;
9186;SDS011;7273;48.902;9.410;2023-01-25T13:00:22;655.20;;;227.52;;
9186;SDS011;7273;48.902;9.410;2023-01-25T13:09:27;656.33;;;230.02;;
9186;SDS011;7273;48.902;9.410;2023-01-25T13:12:12;657.05;;;228.88;;
9186;SDS011;7273;48.902;9.410;2023-01-25T13:14:38;660.33;;;228.65;;
9186;SDS011;7273;48.902;9.410;2023-01-25T13:19:52;661.25;;;230.55;;
9186;SDS011;7273;48.902;9.410;2023-01-25T13:25:18;662.03;;;231.05;;
9186;SDS011;7273;48.902;9.410;2023-01-25T13:27:45;667.85;;;234.60;;
9186;SDS011;7273;48.902;9.410;2023-01-25T13:35:30;678.78;;;239.13;;
9186;SDS011;7273;48.902;9.410;2023-01-25T13:40:33;680.35;;;239.73;;
9186;SDS011;7273;48.902;9.410;2023-01-25T13:48:13;684.70;;;247.93;;
9186;SDS011;7273;48.902;9.410;2023-01-25T13:50:46;681.50;;;244.07;;
9186;SDS011;7273;48.902;9.410;2023-01-25T13:55:44;674.83;;;240.97;;
9186;SDS011;7273;48.902;9.410;2023-01-25T13:58:16;646.85;;;223.73;;
9186;SDS011;7273;48.902;9.410;2023-01-25T14:00:53;638.83;;;216.63;;
9186;SDS011;7273;48.902;9.410;2023-01-25T14:03:26;670.72;;;235.57;;
9186;SDS011;7273;48.902;9.410;2023-01-25T14:05:55;654.25;;;227.23;;
9186;SDS011;7273;48.902;9.410;2023-01-25T14:08:22;631.95;;;214.77;;
9186;SDS011;7273;48.902;9.410;2023-01-25T14:10:49;593.88;;;192.52;;
9186;SDS011;7273;48.902;9.410;2023-01-25T14:13:16;572.65;;;182.25;;
9186;SDS011;7273;48.902;9.410;2023-01-25T14:15:58;570.28;;;182.73;;
9186;SDS011;7273;48.902;9.410;2023-01-25T14:18:26;565.42;;;179.85;;
9186;SDS011;7273;48.902;9.410;2023-01-25T14:21:08;566.45;;;178.73;;
9186;SDS011;7273;48.902;9.410;2023-01-25T14:23:34;560.30;;;177.27;;
9186;SDS011;7273;48.902;9.410;2023-01-25T14:25:59;562.05;;;177.05;;
9186;SDS011;7273;48.902;9.410;2023-01-25T14:28:26;562.78;;;177.75;;
9186;SDS011;7273;48.902;9.410;2023-01-25T14:30:54;560.03;;;176.18;;
9186;SDS011;7273;48.902;9.410;2023-01-25T14:35:49;565.53;;;178.68;;
9186;SDS011;7273;48.902;9.410;2023-01-25T14:40:52;574.15;;;183.27;;
9186;SDS011;7273;48.902;9.410;2023-01-25T14:43:31;565.53;;;178.70;;
9186;SDS011;7273;48.902;9.410;2023-01-25T14:45:57;557.67;;;176.38;;
9186;SDS011;7273;48.902;9.410;2023-01-25T14:48:32;579.88;;;186.02;;
9186;SDS011;7273;48.902;9.410;2023-01-25T14:51:28;569.03;;;183.32;;
9186;SDS011;7273;48.902;9.410;2023-01-25T14:53:56;550.72;;;172.02;;
9186;SDS011;7273;48.902;9.410;2023-01-25T14:56:33;553.08;;;173.05;;
9186;SDS011;7273;48.902;9.410;2023-01-25T14:59:04;558.10;;;177.82;;
9186;SDS011;7273;48.902;9.410;2023-01-25T15:01:38;582.83;;;188.52;;
9186;SDS011;7273;48.902;9.410;2023-01-25T15:04:09;584.20;;;189.80;;
9186;SDS011;7273;48.902;9.410;2023-01-25T15:07:29;585.80;;;190.32;;
9186;SDS011;7273;48.902;9.410;2023-01-25T15:12:39;586.37;;;190.87;;
9186;SDS011;7273;48.902;9.410;2023-01-25T15:14:54;584.78;;;191.02;;
9186;SDS011;7273;48.902;9.410;2023-01-25T15:20:05;587.28;;;191.57;;
9186;SDS011;7273;48.902;9.410;2023-01-25T15:22:49;595.35;;;196.82;;
9186;SDS011;7273;48.902;9.410;2023-01-25T15:25:15;607.42;;;202.10;;
9186;SDS011;7273;48.902;9.410;2023-01-25T15:27:40;619.17;;;209.18;;
9186;SDS011;7273;48.902;9.410;2023-01-25T15:30:10;625.97;;;213.50;;
9186;SDS011;7273;48.902;9.410;2023-01-25T15:32:40;619.47;;;208.68;;
9186;SDS011;7273;48.902;9.410;2023-01-25T15:35:15;625.38;;;212.38;;
9186;SDS011;7273;48.902;9.410;2023-01-25T15:37:44;627.33;;;212.95;;
9186;SDS011;7273;48.902;9.410;2023-01-25T15:40:11;624.45;;;212.23;;
9186;SDS011;7273;48.902;9.410;2023-01-25T15:42:38;624.92;;;212.30;;
9186;SDS011;7273;48.902;9.410;2023-01-25T15:45:04;621.83;;;210.60;;
9186;SDS011;7273;48.902;9.410;2023-01-25T15:47:30;619.65;;;209.77;;
9186;SDS011;7273;48.902;9.410;2023-01-25T15:49:57;620.63;;;209.80;;
9186;SDS011;7273;48.902;9.410;2023-01-25T15:52:22;617.83;;;208.15;;
9186;SDS011;7273;48.902;9.410;2023-01-25T15:54:48;618.63;;;208.10;;
9186;SDS011;7273;48.902;9.410;2023-01-25T15:59:55;616.20;;;208.57;;
9186;SDS011;7273;48.902;9.410;2023-01-25T16:02:22;619.45;;;210.30;;
9186;SDS011;7273;48.902;9.410;2023-01-25T16:04:48;618.33;;;209.23;;
9186;SDS011;7273;48.902;9.410;2023-01-25T16:07:20;617.25;;;208.38;;
9186;SDS011;7273;48.902;9.410;2023-01-25T16:09:48;615.15;;;207.65;;
9186;SDS011;7273;48.902;9.410;2023-01-25T16:12:14;612.20;;;206.85;;
9186;SDS011;7273;48.902;9.410;2023-01-25T16:14:40;617.00;;;208.43;;
9186;SDS011;7273;48.902;9.410;2023-01-25T16:17:05;616.08;;;207.32;;
9186;SDS011;7273;48.902;9.410;2023-01-25T16:19:31;615.10;;;208.50;;
9186;SDS011;7273;48.902;9.410;2023-01-25T16:21:57;620.60;;;210.45;;
9186;SDS011;7273;48.902;9.410;2023-01-25T16:24:23;620.85;;;208.18;;
9186;SDS011;7273;48.902;9.410;2023-01-25T16:26:55;619.95;;;209.40;;
9186;SDS011;7273;48.902;9.410;2023-01-25T16:29:21;619.05;;;209.18;;
9186;SDS011;7273;48.902;9.410;2023-01-25T16:31:47;617.38;;;209.13;;
9186;SDS011;7273;48.902;9.410;2023-01-25T16:34:13;615.20;;;208.77;;
9186;SDS011;7273;48.902;9.410;2023-01-25T16:36:38;616.30;;;207.57;;
9186;SDS011;7273;48.902;9.410;2023-01-25T16:39:17;619.72;;;209.23;;
9186;SDS011;7273;48.902;9.410;2023-01-25T16:41:47;615.72;;;209.50;;
9186;SDS011;7273;48.902;9.410;2023-01-25T16:44:13;614.65;;;207.55;;
9186;SDS011;7273;48.902;9.410;2023-01-25T16:46:38;614.63;;;207.48;;
9186;SDS011;7273;48.902;9.410;2023-01-25T16:49:04;616.80;;;208.77;;